createdAt,value
2023-09-28T00:00:04.687Z,13.181
2023-09-28T00:05:04.952Z,12.765
2023-09-28T00:10:03.837Z,13.437
2023-09-28T00:15:03.793Z,13.86
2023-09-28T00:20:04.793Z,13.956
2023-09-28T00:25:04.526Z,13.502
2023-09-28T00:30:04.255Z,13.603
2023-09-28T00:35:04.118Z,15.007
2023-09-28T00:40:03.849Z,15.765
2023-09-28T00:45:04.581Z,10.728
2023-09-28T00:50:04.665Z,13.968
2023-09-28T00:55:04.424Z,12.51
2023-09-28T01:00:04.097Z,16.03
2023-09-28T01:05:04.202Z,14.005
2023-09-28T01:10:03.991Z,11.953
2023-09-28T01:15:04.722Z,13.381
2023-09-28T01:20:04.804Z,12.829
2023-09-28T01:25:04.458Z,16.854
2023-09-28T01:30:04.171Z,12.867
2023-09-28T01:35:04.274Z,12.223
2023-09-28T01:40:04.112Z,13.117
2023-09-28T01:45:03.782Z,11.448
2023-09-28T01:50:05.146Z,16.741
2023-09-28T01:55:04.023Z,12.661
2023-09-28T02:00:03.730Z,13.425
2023-09-28T02:05:04.956Z,14.335
2023-09-28T02:10:03.778Z,10.912
2023-09-28T02:15:04.469Z,11.437
2023-09-28T02:20:04.424Z,10.068
2023-09-28T02:25:04.080Z,15.054
2023-09-28T02:30:03.664Z,15.478
2023-09-28T02:35:04.747Z,15.858
2023-09-28T02:40:04.420Z,17.577
2023-09-28T02:45:04.058Z,14.07
2023-09-28T02:50:03.878Z,11.529
2023-09-28T02:55:04.687Z,14.877
2023-09-28T03:00:04.384Z,11.301
2023-09-28T03:05:04.292Z,13.464
2023-09-28T03:10:03.955Z,12.812
2023-09-28T03:15:04.688Z,14.281
2023-09-28T03:20:04.753Z,13.219
2023-09-28T03:25:06.322Z,12.38
2023-09-28T03:30:03.925Z,11.773
2023-09-28T03:35:04.865Z,13.192
2023-09-28T03:40:04.514Z,12.677
2023-09-28T03:45:04.225Z,12.623
2023-09-28T03:50:04.129Z,12.943
2023-09-28T03:55:03.858Z,13.137
2023-09-28T04:00:04.490Z,14.071
2023-09-28T04:05:04.602Z,10.587
2023-09-28T04:10:04.364Z,13.696
2023-09-28T04:15:03.994Z,10.993
2023-09-28T04:20:03.936Z,14.113
2023-09-28T04:25:04.557Z,13.083
2023-09-28T04:30:04.254Z,18.391
2023-09-28T04:35:04.602Z,13.198
2023-09-28T04:40:04.293Z,15.342
2023-09-28T04:45:03.974Z,14.509
2023-09-28T04:50:04.146Z,14.107
2023-09-28T04:55:09.085Z,15.109
2023-09-28T05:00:04.446Z,15.072
2023-09-28T05:05:04.311Z,13.231
2023-09-28T05:10:04.159Z,13.307
2023-09-28T05:15:04.858Z,11.887
2023-09-28T05:20:04.481Z,16.525
2023-09-28T05:25:03.710Z,15.099
2023-09-28T05:30:03.904Z,18.392
2023-09-28T05:35:04.321Z,20.538
2023-09-28T05:40:03.981Z,15.283
2023-09-28T05:45:03.845Z,11.811
2023-09-28T05:50:04.726Z,22.228
2023-09-28T05:55:04.520Z,13.756
2023-09-28T06:00:04.286Z,12.802
2023-09-28T06:05:04.328Z,13.707
2023-09-28T06:10:04.183Z,12.092
2023-09-28T06:15:08.851Z,14.33
2023-09-28T06:20:04.894Z,12.065
2023-09-28T06:25:04.955Z,14.157
2023-09-28T06:30:04.604Z,16.556
2023-09-28T06:35:04.517Z,11.113
2023-09-28T06:40:04.295Z,12.705
2023-09-28T06:45:03.949Z,10.955
2023-09-28T06:50:03.993Z,12.173
2023-09-28T06:55:03.707Z,12.108
2023-09-28T07:00:04.513Z,13.322
2023-09-28T07:05:04.433Z,11.399
2023-09-28T07:10:04.309Z,12.18
2023-09-28T07:15:04.632Z,12.569
2023-09-28T07:20:04.757Z,9.9
2023-09-28T07:25:04.054Z,9.64
2023-09-28T07:30:04.331Z,10.577
2023-09-28T07:35:04.674Z,12.645
2023-09-28T07:40:04.427Z,11.568
2023-09-28T07:45:04.227Z,10.76
2023-09-28T07:50:04.108Z,13.68
2023-09-28T07:55:03.812Z,10.083
2023-09-28T08:00:04.615Z,9.38
2023-09-28T08:05:04.627Z,12.227
2023-09-28T08:10:06.473Z,10.554
2023-09-28T08:15:04.138Z,10.609
2023-09-28T08:20:04.352Z,7.543
2023-09-28T08:25:03.988Z,11.014
2023-09-28T08:30:08.244Z,8.442
2023-09-28T08:35:04.278Z,9.205
2023-09-28T08:40:04.182Z,8.047
2023-09-28T08:45:04.343Z,13.668
2023-09-28T08:50:04.873Z,9.282
2023-09-28T08:55:05.159Z,11.28
2023-09-28T09:00:04.195Z,8.87
2023-09-28T09:05:04.450Z,9.586
2023-09-28T09:10:04.670Z,10.197
2023-09-28T09:15:06.578Z,9.07
2023-09-28T09:20:04.711Z,11.068
2023-09-28T09:25:04.830Z,9.163
2023-09-28T09:30:04.985Z,10.744
2023-09-28T09:35:09.164Z,11.206
2023-09-28T09:40:04.573Z,10.165
2023-09-28T09:45:04.459Z,10.989
2023-09-28T09:50:04.940Z,10.787
2023-09-28T09:55:03.824Z,8.182
2023-09-28T10:00:04.541Z,9.515
2023-09-28T10:05:05.759Z,8.703
2023-09-28T10:10:03.800Z,9.596
2023-09-28T10:15:05.313Z,8.28
2023-09-28T10:20:04.797Z,10.3
2023-09-28T10:25:05.586Z,7.132
2023-09-28T10:30:04.567Z,7.75
2023-09-28T10:35:04.867Z,8.767
2023-09-28T10:40:03.780Z,8.957
2023-09-28T10:45:04.521Z,9.384
2023-09-28T10:50:04.000Z,8.94
2023-09-28T10:55:03.842Z,8.735
2023-09-28T11:00:04.759Z,7.207
2023-09-28T11:05:05.872Z,6.433
2023-09-28T11:10:03.773Z,7.976
2023-09-28T11:15:04.580Z,8.393
2023-09-28T11:20:04.646Z,6.715
2023-09-28T11:25:04.452Z,9.282
2023-09-28T11:30:04.758Z,6.774
2023-09-28T11:35:04.649Z,6.682
2023-09-28T11:40:03.911Z,9.898
2023-09-28T11:45:03.780Z,9.45
2023-09-28T11:50:04.859Z,7.473
2023-09-28T11:55:04.687Z,8.107
2023-09-28T12:00:04.969Z,8.209
2023-09-28T12:05:04.033Z,7.104
2023-09-28T12:10:06.294Z,6.655
2023-09-28T12:15:04.025Z,7.722
2023-09-28T12:20:04.607Z,8.599
2023-09-28T12:25:04.457Z,9.298
2023-09-28T12:30:04.461Z,10.684
2023-09-28T12:35:04.474Z,9.066
2023-09-28T12:40:04.232Z,9.384
2023-09-28T12:45:03.921Z,8.377
2023-09-28T12:50:05.260Z,7.365
2023-09-28T12:55:04.052Z,7.983
2023-09-28T13:00:03.972Z,9.937
2023-09-28T13:05:04.376Z,8.724
2023-09-28T13:10:04.184Z,9.221
2023-09-28T13:15:04.439Z,8.15
2023-09-28T13:20:04.425Z,9.018
2023-09-28T13:25:04.186Z,8.989
2023-09-28T13:30:04.008Z,7.689
2023-09-28T13:35:03.891Z,9.488
2023-09-28T13:40:04.562Z,8.534
2023-09-28T13:45:04.731Z,5.886
2023-09-28T13:50:04.818Z,7.327
2023-09-28T13:55:04.554Z,9.856
2023-09-28T14:00:04.281Z,7.58
2023-09-28T14:05:04.291Z,8.274
2023-09-28T14:10:04.008Z,8.355
2023-09-28T14:15:03.807Z,8.866
2023-09-28T14:20:04.945Z,8.246
2023-09-28T14:25:03.747Z,6.661
2023-09-28T14:30:04.545Z,6.946
2023-09-28T14:35:06.939Z,7.327
2023-09-28T14:40:03.851Z,8.145
2023-09-28T14:45:06.886Z,8.339
2023-09-28T14:50:05.245Z,9.234
2023-09-28T14:55:04.074Z,10.923
2023-09-28T15:00:04.176Z,6.915
2023-09-28T15:05:04.227Z,7.223
2023-09-28T15:10:04.078Z,7.575
2023-09-28T15:15:03.871Z,7.662
2023-09-28T15:20:05.348Z,8.605
2023-09-28T15:25:04.350Z,9.12
2023-09-28T15:30:04.192Z,8.355
2023-09-28T15:35:04.473Z,6.385
2023-09-28T15:40:04.236Z,7.044
2023-09-28T15:45:04.148Z,7.034
2023-09-28T15:50:04.590Z,6.85
2023-09-28T15:55:03.849Z,9.58
2023-09-28T16:00:04.103Z,8.539
2023-09-28T16:05:04.359Z,6.736
2023-09-28T16:10:04.263Z,7.071
2023-09-28T20:50:06.208Z,10.391
2023-09-28T20:55:03.988Z,9.271
2023-09-28T21:00:03.808Z,11.805
2023-09-28T21:05:04.583Z,10.993
2023-09-28T21:10:04.332Z,10.36
2023-09-28T21:15:04.086Z,10.797
2023-09-28T21:20:03.972Z,11.513
2023-09-28T21:25:04.661Z,11.714
2023-09-28T21:30:04.306Z,12.971
2023-09-28T21:35:04.525Z,13.398
2023-09-28T21:40:04.231Z,11.963
2023-09-28T21:45:04.348Z,15.575
2023-09-28T21:50:04.050Z,15.082
2023-09-28T21:55:03.788Z,24.654
2023-09-28T22:00:04.660Z,15.202
2023-09-28T22:05:04.421Z,17.163
2023-09-28T22:10:04.081Z,16.183
2023-09-28T22:15:03.863Z,14.52
2023-09-28T22:20:04.616Z,14.862
2023-09-28T22:25:04.260Z,17.33
2023-09-28T22:30:04.087Z,13.782
2023-09-28T22:35:03.905Z,16.02
2023-09-28T22:40:29.802Z,16.21
2023-09-28T22:45:04.570Z,16.356
2023-09-28T22:50:04.353Z,18.961
2023-09-28T22:55:04.035Z,15.792
2023-09-28T23:00:03.864Z,13.577
2023-09-28T23:05:04.623Z,16.512
2023-09-28T23:10:04.362Z,14.287
2023-09-28T23:15:04.036Z,15.646
2023-09-28T23:20:04.028Z,18.007
2023-09-28T23:25:03.789Z,16.204
2023-09-28T23:30:04.548Z,17.584
2023-09-28T23:35:04.323Z,19.639
2023-09-28T23:40:03.991Z,15.327
2023-09-28T23:45:04.706Z,17.98
2023-09-28T23:50:04.485Z,21.193
2023-09-28T23:55:04.233Z,14.845
